Time;durP1;ratioP1;P1;durP2;ratioP2;P2;SDS_P1;SDS_P2;PMS_P1;PMS_P2;Temp;Humidity;BMP_temperature;BMP_pressure;BME280_temperature;BME280_humidity;BME280_pressure;Samples;Min_cycle;Max_cycle;Signal;HPM_P1;HPM_P2
2024/01/11 00:51:02;;;;;;;32.1;12.5;;;;;;;;;;;;;-81
2024/01/11 01:21:02;;;;;;;33.2;13.1;;;;;;;;;;;;;-79
2024/01/11 01:51:05;;;;;;;32.7;13;;;;;;;;;;;;;-81
2024/01/11 02:20:53;;;;;;;36.8;14.1;;;;;;;;;;;;;-79
2024/01/11 02:50:51;;;;;;;38;14;;;;;;;;;;;;;-80
2024/01/11 03:20:52;;;;;;;37.2;14.2;;;;;;;;;;;;;-81
2024/01/11 03:50:58;;;;;;;34.6;12.9;;;;;;;;;;;;;-84
2024/01/11 04:20:52;;;;;;;37.3;13.7;;;;;;;;;;;;;-84
2024/01/11 04:50:53;;;;;;;34.1;12.5;;;;;;;;;;;;;-84
2024/01/11 05:20:45;;;;;;;40.8;15.1;;;;;;;;;;;;;-84
2024/01/11 05:50:48;;;;;;;36.9;14.5;;;;;;;;;;;;;-84
2024/01/11 06:20:48;;;;;;;38.8;15.1;;;;;;;;;;;;;-85
2024/01/11 06:50:45;;;;;;;44.7;15.7;;;;;;;;;;;;;-85
2024/01/11 07:20:47;;;;;;;47.6;16.9;;;;;;;;;;;;;-83
2024/01/11 07:50:38;;;;;;;50.5;18.4;;;;;;;;;;;;;-84
2024/01/11 08:20:41;;;;;;;43.9;17.3;;;;;;;;;;;;;-83
2024/01/11 08:50:46;;;;;;;50.8;19.3;;;;;;;;;;;;;-84
2024/01/11 09:20:33;;;;;;;45.1;19.2;;;;;;;;;;;;;-83
2024/01/11 09:50:34;;;;;;;46;21.1;;;;;;;;;;;;;-81
2024/01/11 10:20:33;;;;;;;42.3;18.6;;;;;;;;;;;;;-80
2024/01/11 10:50:37;;;;;;;37.8;17;;;;;;;;;;;;;-80
2024/01/11 11:20:31;;;;;;;34.7;15.3;;;;;;;;;;;;;-79
2024/01/11 11:50:33;;;;;;;34.6;14.7;;;;;;;;;;;;;-78
2024/01/11 12:20:30;;;;;;;25.8;12.8;;;;;;;;;;;;;-79
2024/01/11 12:50:32;;;;;;;31;14;;;;;;;;;;;;;-79
2024/01/11 13:20:38;;;;;;;22.9;11.1;;;;;;;;;;;;;-79
2024/01/11 13:50:29;;;;;;;24.6;12;;;;;;;;;;;;;-80
2024/01/11 14:20:38;;;;;;;24;11.2;;;;;;;;;;;;;-79
2024/01/11 14:50:33;;;;;;;24.3;10.6;;;;;;;;;;;;;-78
2024/01/11 15:20:46;;;;;;;33.4;11.7;;;;;;;;;;;;;-78
2024/01/11 15:50:29;;;;;;;38.6;9.9;;;;;;;;;;;;;-78
2024/01/11 16:50:32;;;;;;;24.6;3.8;;;;;;;;;;;;;-84
2024/01/11 17:20:30;;;;;;;27;4;;;;;;;;;;;;;-84
2024/01/11 17:50:34;;;;;;;26.4;3.9;;;;;;;;;;;;;-83
2024/01/11 18:20:30;;;;;;;34.7;5;;;;;;;;;;;;;-83
2024/01/11 18:50:31;;;;;;;24.6;3.7;;;;;;;;;;;;;-80
2024/01/11 19:20:32;;;;;;;31.9;4.4;;;;;;;;;;;;;-79
2024/01/11 19:50:32;;;;;;;25.5;3.9;;;;;;;;;;;;;-79
2024/01/11 20:20:32;;;;;;;35.1;4.8;;;;;;;;;;;;;-79
2024/01/11 20:50:35;;;;;;;29.6;5.2;;;;;;;;;;;;;-79
2024/01/11 21:20:30;;;;;;;27.7;4.1;;;;;;;;;;;;;-78
2024/01/11 21:50:35;;;;;;;23.6;4.5;;;;;;;;;;;;;-79
2024/01/11 22:20:30;;;;;;;26.1;4.3;;;;;;;;;;;;;-78
2024/01/11 22:50:49;;;;;;;15.3;3.9;;;;;;;;;;;;;-80
2024/01/11 23:20:29;;;;;;;13.5;3.7;;;;;;;;;;;;;-80
2024/01/11 23:50:33;;;;;;;14.8;3.6;;;;;;;;;;;;;-78
